createdAt,value
2022-10-15T00:01:20.468Z,20.65
2022-10-15T00:03:47.643Z,19.38
2022-10-15T00:06:17.537Z,21.65
2022-10-15T00:08:44.953Z,23.20
2022-10-15T00:11:14.508Z,21.35
2022-10-15T00:13:41.858Z,22.80
2022-10-15T00:16:13.625Z,21.77
2022-10-15T00:18:40.707Z,21.23
2022-10-15T00:21:09.471Z,23.13
2022-10-15T00:23:36.668Z,21.58
2022-10-15T00:26:04.926Z,20.73
2022-10-15T00:28:33.596Z,22.73
2022-10-15T00:31:09.864Z,23.30
2022-10-15T00:33:37.082Z,19.40
2022-10-15T00:36:10.967Z,22.80
2022-10-15T00:38:37.513Z,19.42
2022-10-15T00:41:06.428Z,18.63
2022-10-15T00:43:38.749Z,22.75
2022-10-15T00:48:33.152Z,19.40
2022-10-15T00:51:04.113Z,21.08
2022-10-15T00:53:31.025Z,21.90
2022-10-15T00:55:58.720Z,21.98
2022-10-15T00:58:28.376Z,22.67
2022-10-15T01:00:55.767Z,21.20
2022-10-15T01:03:23.093Z,20.20
2022-10-15T01:05:53.485Z,21.52
2022-10-15T01:08:20.150Z,19.05
2022-10-15T01:10:49.495Z,18.48
2022-10-15T01:13:37.116Z,22.77
2022-10-15T01:16:22.694Z,21.10
2022-10-15T01:19:03.970Z,23.58
2022-10-15T01:21:39.352Z,20.95
2022-10-15T01:24:18.345Z,23.23
2022-10-15T01:26:58.969Z,21.60
2022-10-15T01:29:31.345Z,22.63
2022-10-15T01:34:46.308Z,19.98
2022-10-15T01:37:22.070Z,20.02
2022-10-15T01:40:12.961Z,17.92
2022-10-15T01:42:51.099Z,16.10
2022-10-15T01:45:25.198Z,18.42
2022-10-15T01:47:58.169Z,17.30
2022-10-15T01:50:28.186Z,19.85
2022-10-15T01:52:56.642Z,19.30
2022-10-15T01:55:26.012Z,23.83
2022-10-15T01:57:55.086Z,19.48
2022-10-15T02:00:21.684Z,19.13
2022-10-15T02:02:48.337Z,17.13
2022-10-15T02:05:25.425Z,18.23
2022-10-15T02:08:02.745Z,17.48
2022-10-15T02:10:57.026Z,16.88
2022-10-15T02:13:51.266Z,19.60
2022-10-15T02:16:30.110Z,19.02
2022-10-15T02:19:08.131Z,21.35
2022-10-15T02:21:57.770Z,18.38
2022-10-15T02:24:27.267Z,19.52
2022-10-15T02:26:58.238Z,19.35
2022-10-15T02:29:31.532Z,21.48
2022-10-15T02:32:00.879Z,18.55
2022-10-15T02:34:30.606Z,18.38
2022-10-15T02:37:00.894Z,19.20
2022-10-15T02:39:28.029Z,19.38
2022-10-15T02:41:55.179Z,18.08
2022-10-15T02:44:22.072Z,20.45
2022-10-15T02:46:48.735Z,21.55
2022-10-15T02:49:15.892Z,19.88
2022-10-15T02:51:42.487Z,19.60
2022-10-15T02:54:09.243Z,20.33
2022-10-15T02:56:39.092Z,19.63
2022-10-15T02:59:06.621Z,20.73
2022-10-15T03:01:34.408Z,19.30
2022-10-15T03:04:01.721Z,21.85
2022-10-15T03:06:28.637Z,22.38
2022-10-15T03:08:55.438Z,19.60
2022-10-15T03:11:22.026Z,20.63
2022-10-15T03:13:48.600Z,23.00
2022-10-15T03:16:15.246Z,21.13
2022-10-15T03:18:41.844Z,22.05
2022-10-15T03:21:08.522Z,22.25
2022-10-15T03:23:35.120Z,25.35
2022-10-15T03:26:01.960Z,24.88
2022-10-15T03:28:28.711Z,25.45
2022-10-15T03:30:55.369Z,23.98
2022-10-15T03:33:24.466Z,26.02
2022-10-15T03:35:53.235Z,21.92
2022-10-15T03:38:19.911Z,23.42
2022-10-15T03:40:46.919Z,25.65
2022-10-15T03:43:13.678Z,26.25
2022-10-15T03:45:40.454Z,22.95
2022-10-15T03:48:07.056Z,26.80
2022-10-15T03:50:34.445Z,21.17
2022-10-15T03:53:04.745Z,20.13
2022-10-15T03:55:31.718Z,25.88
2022-10-15T03:57:58.303Z,22.73
2022-10-15T04:00:25.120Z,22.00
2022-10-15T04:02:51.692Z,26.42
2022-10-15T04:05:18.318Z,29.08
2022-10-15T04:07:44.853Z,25.92
2022-10-15T04:10:11.455Z,25.50
2022-10-15T04:12:38.038Z,27.52
2022-10-15T04:15:05.015Z,26.33
2022-10-15T04:17:31.597Z,31.25
2022-10-15T04:19:58.282Z,26.90
2022-10-15T04:22:25.229Z,30.98
2022-10-15T04:24:52.047Z,29.40
2022-10-15T04:27:18.647Z,29.30
2022-10-15T04:29:48.824Z,29.23
2022-10-15T04:32:15.885Z,28.42
2022-10-15T04:34:42.586Z,30.60
2022-10-15T04:37:09.239Z,28.30
2022-10-15T04:39:35.822Z,29.00
2022-10-15T04:42:02.400Z,27.73
2022-10-15T04:44:29.029Z,29.15
2022-10-15T04:46:55.755Z,26.10
2022-10-15T04:49:22.356Z,31.38
2022-10-15T04:51:48.982Z,29.70
2022-10-15T04:54:15.746Z,26.15
2022-10-15T04:56:42.369Z,24.67
2022-10-15T04:59:09.538Z,27.08
2022-10-15T05:01:36.295Z,30.45
2022-10-15T05:04:02.902Z,31.52
2022-10-15T05:06:29.481Z,29.63
2022-10-15T05:08:56.050Z,31.38
2022-10-15T05:11:25.741Z,29.40
2022-10-15T05:13:54.422Z,28.65
2022-10-15T05:16:23.715Z,26.83
2022-10-15T05:18:52.633Z,29.23
2022-10-15T05:21:19.714Z,29.15
2022-10-15T05:23:47.201Z,24.77
2022-10-15T05:26:16.634Z,27.48
2022-10-15T05:28:43.632Z,25.67
2022-10-15T05:31:18.822Z,24.33
2022-10-15T05:33:47.181Z,28.00
2022-10-15T05:36:17.289Z,21.48
2022-10-15T05:38:48.606Z,22.13
2022-10-15T05:41:15.839Z,21.95
2022-10-15T05:43:43.017Z,25.20
2022-10-15T05:46:09.634Z,23.17
2022-10-15T05:48:36.226Z,22.08
2022-10-15T05:51:04.131Z,22.83
2022-10-15T05:53:30.849Z,26.30
2022-10-15T05:56:01.075Z,25.20
2022-10-15T05:58:32.117Z,26.33
2022-10-15T06:01:03.299Z,21.20
2022-10-15T06:03:30.250Z,24.90
2022-10-15T06:05:57.220Z,26.80
2022-10-15T06:08:23.816Z,26.05
2022-10-15T06:10:50.501Z,24.42
2022-10-15T06:13:17.427Z,20.83
2022-10-15T06:15:45.741Z,23.23
2022-10-15T06:18:15.741Z,26.02
2022-10-15T06:20:43.730Z,20.83
2022-10-15T06:23:11.446Z,25.40
2022-10-15T06:25:38.121Z,24.52
2022-10-15T06:28:06.325Z,23.77
2022-10-15T06:30:33.329Z,22.25
2022-10-15T06:33:00.022Z,24.73
2022-10-15T06:35:30.149Z,29.15
2022-10-15T06:38:02.210Z,28.63
2022-10-15T06:40:30.805Z,26.70
2022-10-15T06:43:08.233Z,26.85
2022-10-15T06:45:41.562Z,28.92
2022-10-15T06:48:08.793Z,28.95
2022-10-15T06:50:36.918Z,30.35
2022-10-15T06:53:04.390Z,28.70
2022-10-15T06:55:31.754Z,30.60
2022-10-15T06:57:58.613Z,30.83
2022-10-15T07:00:26.020Z,31.27
2022-10-15T07:02:53.122Z,31.02
2022-10-15T07:05:20.341Z,33.75
2022-10-15T07:07:54.330Z,28.90
2022-10-15T07:10:22.024Z,34.45
2022-10-15T07:12:48.784Z,32.53
2022-10-15T07:15:16.016Z,35.47
2022-10-15T07:17:50.477Z,32.17
2022-10-15T07:20:21.753Z,36.00
2022-10-15T07:22:51.166Z,37.70
2022-10-15T07:25:18.045Z,38.50
2022-10-15T07:27:44.733Z,38.92
2022-10-15T07:30:11.370Z,38.22
2022-10-15T07:32:37.979Z,35.78
2022-10-15T07:35:05.226Z,35.85
2022-10-15T07:37:32.116Z,34.92
2022-10-15T07:39:58.828Z,36.15
2022-10-15T07:42:25.873Z,37.45
2022-10-15T07:44:52.510Z,35.95
2022-10-15T07:47:19.143Z,36.10
2022-10-15T07:49:45.811Z,33.20
2022-10-15T07:52:12.414Z,36.47
2022-10-15T07:54:39.093Z,35.85
2022-10-15T07:57:07.055Z,39.70
2022-10-15T07:59:34.762Z,36.88
2022-10-15T08:02:01.656Z,34.25
2022-10-15T08:04:28.479Z,34.88
2022-10-15T08:06:55.378Z,34.78
2022-10-15T08:09:22.315Z,35.33
2022-10-15T08:11:48.894Z,34.88
2022-10-15T08:14:15.665Z,31.30
2022-10-15T08:16:42.221Z,34.45
2022-10-15T08:19:08.763Z,36.05
2022-10-15T08:21:35.645Z,38.00
2022-10-15T08:24:02.463Z,36.97
2022-10-15T08:26:29.293Z,34.08
2022-10-15T08:28:56.150Z,32.67
2022-10-15T08:31:23.012Z,32.40
2022-10-15T08:33:50.345Z,32.75
2022-10-15T08:36:17.144Z,39.72
2022-10-15T08:38:43.768Z,44.80
2022-10-15T08:41:32.505Z,35.08
2022-10-15T08:43:59.734Z,38.10
2022-10-15T08:46:35.337Z,34.78
2022-10-15T08:49:03.265Z,36.35
2022-10-15T08:51:41.257Z,36.03
2022-10-15T08:54:15.099Z,34.28
2022-10-15T08:56:45.601Z,33.45
2022-10-15T08:59:34.774Z,33.92
2022-10-15T09:02:16.976Z,33.05
2022-10-15T09:04:59.987Z,29.67
2022-10-15T09:07:54.411Z,33.80
2022-10-15T09:10:43.348Z,32.03
2022-10-15T09:13:13.850Z,30.83
2022-10-15T09:15:58.346Z,29.88
2022-10-15T09:18:28.549Z,27.92
2022-10-15T09:20:55.669Z,26.80
2022-10-15T09:23:26.996Z,38.22
2022-10-15T09:26:09.566Z,29.38
2022-10-15T09:31:09.183Z,27.17
2022-10-15T09:33:46.392Z,25.10
2022-10-15T09:36:28.245Z,27.50
2022-10-15T09:39:31.898Z,25.00
2022-10-15T09:42:17.258Z,24.65
2022-10-15T09:44:46.698Z,24.77
2022-10-15T09:47:27.578Z,27.42
2022-10-15T09:49:54.190Z,22.23
2022-10-15T09:52:42.576Z,22.73
2022-10-15T09:55:28.033Z,23.85
2022-10-15T09:57:59.029Z,22.63
2022-10-15T10:00:25.758Z,21.25
2022-10-15T10:03:15.224Z,20.98
2022-10-15T10:05:43.207Z,20.20
2022-10-15T10:08:23.196Z,19.33
2022-10-15T10:11:08.087Z,21.48
2022-10-15T10:13:46.062Z,17.95
2022-10-15T10:16:14.933Z,16.52
2022-10-15T10:18:50.150Z,18.70
2022-10-15T10:21:28.651Z,17.02
2022-10-15T10:23:55.274Z,15.70
2022-10-15T10:26:22.163Z,17.48
2022-10-15T10:29:04.688Z,16.95
2022-10-15T10:31:42.577Z,15.35
2022-10-15T10:34:15.989Z,18.38
2022-10-15T10:36:44.180Z,17.02
2022-10-15T10:39:13.202Z,14.32
2022-10-15T10:42:03.764Z,20.88
2022-10-15T10:44:34.506Z,16.63
2022-10-15T10:47:15.205Z,15.23
2022-10-15T10:49:56.547Z,14.48
2022-10-15T10:52:35.245Z,13.52
2022-10-15T10:55:18.365Z,14.65
2022-10-15T10:57:47.591Z,14.02
2022-10-15T11:00:20.407Z,9.80
2022-10-15T11:02:47.368Z,11.90
2022-10-15T11:05:16.347Z,13.48
2022-10-15T11:08:00.488Z,10.93
2022-10-15T11:10:47.643Z,10.68
2022-10-15T11:13:28.942Z,11.88
2022-10-15T11:16:21.765Z,11.30
2022-10-15T11:19:25.376Z,11.75
2022-10-15T11:24:49.468Z,14.30
2022-10-15T11:27:43.682Z,20.10
2022-10-15T11:30:28.905Z,12.40
2022-10-15T11:33:25.779Z,12.20
2022-10-15T11:36:09.839Z,15.38
2022-10-15T11:39:02.005Z,12.45
2022-10-15T11:41:53.702Z,9.27
2022-10-15T11:44:32.702Z,11.63
2022-10-15T11:47:21.237Z,11.25
2022-10-15T11:50:11.459Z,9.52
2022-10-15T11:52:53.282Z,9.68
2022-10-15T11:55:31.643Z,10.35
2022-10-15T11:58:03.920Z,10.15
2022-10-15T12:03:18.310Z,9.05
2022-10-15T12:05:50.130Z,10.43
2022-10-15T12:08:17.993Z,10.73
2022-10-15T12:11:10.988Z,9.68
2022-10-15T12:13:56.669Z,7.85
2022-10-15T12:16:47.018Z,8.02
2022-10-15T12:19:21.673Z,7.57
2022-10-15T12:21:54.461Z,5.55
2022-10-15T12:24:44.503Z,6.72
2022-10-15T12:27:35.685Z,6.05
2022-10-15T12:30:02.306Z,5.60
2022-10-15T12:32:39.760Z,6.88
2022-10-15T12:35:29.524Z,8.57
2022-10-15T12:38:08.719Z,13.23
2022-10-15T12:40:37.282Z,10.38
2022-10-15T12:43:16.033Z,6.82
2022-10-15T12:45:52.385Z,5.13
2022-10-15T12:48:27.676Z,5.40
2022-10-15T12:51:16.850Z,6.85
2022-10-15T12:53:47.614Z,6.15
2022-10-15T12:56:17.172Z,6.25
2022-10-15T12:58:48.351Z,6.72
2022-10-15T13:01:14.984Z,5.25
2022-10-15T13:03:50.928Z,5.13
2022-10-15T13:06:20.333Z,4.93
2022-10-15T13:09:08.662Z,5.07
2022-10-15T13:11:37.731Z,5.78
2022-10-15T13:14:20.532Z,4.80
2022-10-15T13:16:48.349Z,5.63
2022-10-15T13:19:29.894Z,4.90
2022-10-15T13:22:01.899Z,5.63
2022-10-15T13:24:31.062Z,5.47
2022-10-15T13:27:00.521Z,7.32
2022-10-15T13:29:28.002Z,6.43
2022-10-15T13:31:56.682Z,5.20
2022-10-15T13:34:35.502Z,5.38
2022-10-15T13:37:04.247Z,5.03
2022-10-15T13:39:39.796Z,4.28
2022-10-15T13:42:23.274Z,3.85
2022-10-15T13:45:16.350Z,4.90
2022-10-15T13:47:49.345Z,4.82
2022-10-15T13:50:21.973Z,3.50
2022-10-15T13:52:59.269Z,4.28
2022-10-15T13:55:29.636Z,4.78
2022-10-15T13:58:05.853Z,3.90
2022-10-15T14:00:36.942Z,3.17
2022-10-15T14:03:22.511Z,4.22
2022-10-15T14:05:51.334Z,4.70
2022-10-15T14:08:22.648Z,3.40
2022-10-15T14:10:50.816Z,3.10
2022-10-15T14:13:17.534Z,3.78
2022-10-15T14:16:04.369Z,2.80
2022-10-15T14:18:35.287Z,4.18
2022-10-15T14:21:02.802Z,3.33
2022-10-15T14:23:30.310Z,2.78
2022-10-15T14:25:59.953Z,3.20
2022-10-15T14:28:29.096Z,2.95
2022-10-15T14:30:56.682Z,2.92
2022-10-15T14:33:39.210Z,2.05
2022-10-15T14:38:35.640Z,1.90
2022-10-15T14:41:22.857Z,2.13
2022-10-15T14:44:01.365Z,1.67
2022-10-15T14:46:39.821Z,1.92
2022-10-15T14:49:16.485Z,1.52
2022-10-15T14:51:43.238Z,1.70
2022-10-15T14:54:21.540Z,2.03
2022-10-15T14:56:50.270Z,1.75
2022-10-15T14:59:19.762Z,1.55
2022-10-15T15:01:58.481Z,4.38
2022-10-15T15:04:53.039Z,5.63
2022-10-15T15:07:20.968Z,3.50
2022-10-15T15:09:48.722Z,2.83
2022-10-15T15:12:25.524Z,2.30
2022-10-15T15:14:54.588Z,1.95
2022-10-15T15:17:23.627Z,5.40
2022-10-15T15:19:53.004Z,2.83
2022-10-15T15:22:29.892Z,3.53
2022-10-15T15:24:59.744Z,5.63
2022-10-15T15:27:31.699Z,5.60
2022-10-15T15:29:59.128Z,5.60
2022-10-15T15:32:25.963Z,2.88
2022-10-15T15:34:54.790Z,3.10
2022-10-15T15:37:23.064Z,2.80
2022-10-15T15:39:50.250Z,3.03
2022-10-15T15:42:25.321Z,5.63
2022-10-15T15:44:52.174Z,4.80
2022-10-15T15:47:19.001Z,4.65
2022-10-15T15:49:45.607Z,4.93
2022-10-15T15:52:13.970Z,4.05
2022-10-15T15:54:41.255Z,3.45
2022-10-15T15:57:07.941Z,2.50
2022-10-15T15:59:34.878Z,4.07
2022-10-15T16:02:01.623Z,4.57
2022-10-15T16:04:28.222Z,5.85
2022-10-15T16:06:54.837Z,4.35
2022-10-15T16:09:22.957Z,4.03
2022-10-15T16:11:50.857Z,5.15
2022-10-15T16:14:17.508Z,3.75
2022-10-15T16:16:44.123Z,8.95
2022-10-15T16:19:10.743Z,5.65
2022-10-15T16:21:37.434Z,4.85
2022-10-15T16:24:04.354Z,5.00
2022-10-15T16:26:31.051Z,3.88
2022-10-15T16:28:57.848Z,4.65
2022-10-15T16:31:30.382Z,3.67
2022-10-15T16:33:57.230Z,3.78
2022-10-15T16:36:24.524Z,3.22
2022-10-15T16:38:51.595Z,5.22
2022-10-15T16:41:19.468Z,4.18
2022-10-15T16:43:50.046Z,6.75
2022-10-15T16:46:18.340Z,8.93
2022-10-15T16:48:45.577Z,7.95
2022-10-15T16:51:15.692Z,7.20
2022-10-15T16:53:44.592Z,7.22
2022-10-15T16:56:17.248Z,6.70
2022-10-15T16:58:43.849Z,5.90
2022-10-15T17:01:16.699Z,5.32
2022-10-15T17:03:44.227Z,8.48
2022-10-15T17:06:14.737Z,12.43
2022-10-15T17:08:49.778Z,8.77
2022-10-15T17:11:18.990Z,7.32
2022-10-15T17:13:46.093Z,4.65
2022-10-15T17:16:22.096Z,7.00
2022-10-15T17:21:24.016Z,5.63
2022-10-15T17:23:52.624Z,6.65
2022-10-15T17:26:22.061Z,4.88
2022-10-15T17:28:49.817Z,4.68
2022-10-15T17:31:22.472Z,5.32
2022-10-15T17:33:49.759Z,4.88
2022-10-15T17:36:21.806Z,4.18
2022-10-15T17:38:48.810Z,3.20
2022-10-15T17:41:18.308Z,3.92
2022-10-15T17:43:45.243Z,2.83
2022-10-15T17:46:14.084Z,4.28
2022-10-15T17:48:40.886Z,1.85
2022-10-15T17:51:10.968Z,2.30
2022-10-15T17:53:37.968Z,7.35
2022-10-15T17:56:34.821Z,6.95
2022-10-15T17:59:04.625Z,7.53
2022-10-15T18:01:56.753Z,3.85
2022-10-15T18:04:20.419Z,4.22
2022-10-15T18:06:46.989Z,3.15
2022-10-15T18:09:13.598Z,4.82
2022-10-15T18:11:40.466Z,6.78
2022-10-15T18:14:07.118Z,5.55
2022-10-15T18:16:33.755Z,6.10
2022-10-15T18:19:00.356Z,7.78
2022-10-15T18:21:28.191Z,7.47
2022-10-15T18:23:56.487Z,6.88
2022-10-15T18:26:23.706Z,7.55
2022-10-15T18:28:52.747Z,6.15
2022-10-15T18:31:20.514Z,5.63
2022-10-15T18:33:51.640Z,10.15
2022-10-15T18:36:27.650Z,8.25
2022-10-15T18:38:55.524Z,3.30
2022-10-15T18:41:25.523Z,5.63
2022-10-15T18:43:52.911Z,7.22
2022-10-15T18:46:20.019Z,6.07
2022-10-15T18:48:46.795Z,4.68
2022-10-15T18:51:13.409Z,2.30
2022-10-15T18:53:41.138Z,3.03
2022-10-15T18:56:09.149Z,2.92
2022-10-15T18:58:38.775Z,2.90
2022-10-15T19:01:26.716Z,3.13
2022-10-15T19:03:54.574Z,2.40
2022-10-15T19:06:24.786Z,4.15
2022-10-15T19:08:52.224Z,3.53
2022-10-15T19:11:19.456Z,1.88
2022-10-15T19:13:46.175Z,2.65
2022-10-15T19:16:13.030Z,3.58
2022-10-15T19:18:39.631Z,3.53
2022-10-15T19:21:06.756Z,1.42
2022-10-15T19:23:33.987Z,3.35
2022-10-15T19:26:01.049Z,4.28
2022-10-15T19:28:29.044Z,6.53
2022-10-15T19:30:57.624Z,16.88
2022-10-15T19:33:25.672Z,5.18
2022-10-15T19:35:52.344Z,3.45
2022-10-15T19:38:19.045Z,2.72
2022-10-15T19:40:48.667Z,1.50
2022-10-15T19:43:16.777Z,1.25
2022-10-15T19:45:44.519Z,1.55
2022-10-15T19:48:12.196Z,2.00
2022-10-15T19:50:41.767Z,2.70
2022-10-15T19:53:09.454Z,1.98
2022-10-15T19:55:36.021Z,2.15
2022-10-15T19:58:02.616Z,1.85
2022-10-15T20:00:29.324Z,2.85
2022-10-15T20:02:56.407Z,2.63
2022-10-15T20:05:23.075Z,2.25
2022-10-15T20:07:49.647Z,4.15
2022-10-15T20:10:16.299Z,3.22
2022-10-15T20:12:43.110Z,3.28
2022-10-15T20:15:10.038Z,2.58
2022-10-15T20:17:36.601Z,2.63
2022-10-15T20:20:03.635Z,2.75
2022-10-15T20:22:30.511Z,2.45
2022-10-15T20:24:57.815Z,2.15
2022-10-15T20:27:24.526Z,2.40
2022-10-15T20:29:51.298Z,2.78
2022-10-15T20:32:33.481Z,2.88
2022-10-15T20:35:00.839Z,2.92
2022-10-15T20:37:27.563Z,2.38
2022-10-15T20:39:54.477Z,2.25
2022-10-15T20:42:21.415Z,2.60
2022-10-15T20:44:47.982Z,1.50
2022-10-15T20:47:15.951Z,2.05
2022-10-15T20:49:46.722Z,2.78
2022-10-15T20:52:14.446Z,2.10
2022-10-15T20:54:41.285Z,1.42
2022-10-15T20:57:09.325Z,2.20
2022-10-15T20:59:35.929Z,2.10
2022-10-15T21:02:02.566Z,1.67
2022-10-15T21:04:29.161Z,3.42
2022-10-15T21:06:55.721Z,2.17
2022-10-15T21:09:22.602Z,2.22
2022-10-15T21:11:49.317Z,2.58
2022-10-15T21:14:16.099Z,2.00
2022-10-15T21:16:42.711Z,3.17
2022-10-15T21:19:09.518Z,1.90
2022-10-15T21:21:36.301Z,2.50
2022-10-15T21:24:03.016Z,1.48
2022-10-15T21:26:29.596Z,1.20
2022-10-15T21:28:58.067Z,2.08
2022-10-15T21:31:26.013Z,1.75
2022-10-15T21:33:54.622Z,1.95
2022-10-15T21:36:24.539Z,3.10
2022-10-15T21:39:04.091Z,2.60
2022-10-15T21:41:33.666Z,1.83
2022-10-15T21:44:02.014Z,1.45
2022-10-15T21:46:30.414Z,1.05
2022-10-15T21:48:57.802Z,1.75
2022-10-15T21:51:27.502Z,19.65
2022-10-15T21:53:55.439Z,69.97
2022-10-15T21:56:22.825Z,61.72
2022-10-15T21:58:49.859Z,22.40
2022-10-15T22:01:24.081Z,5.65
2022-10-15T22:03:52.641Z,2.65
2022-10-15T22:06:20.594Z,1.58
2022-10-15T22:08:47.369Z,2.30
2022-10-15T22:13:56.471Z,2.35
2022-10-15T22:16:24.639Z,1.13
2022-10-15T22:18:51.563Z,1.85
2022-10-15T22:21:21.494Z,1.60
2022-10-15T22:23:50.953Z,1.27
2022-10-15T22:26:20.268Z,1.63
2022-10-15T22:28:47.489Z,2.08
2022-10-15T22:31:16.581Z,1.52
2022-10-15T22:33:44.879Z,1.30
2022-10-15T22:36:31.799Z,2.60
2022-10-15T22:39:04.809Z,1.95
2022-10-15T22:41:34.245Z,1.70
2022-10-15T22:44:01.170Z,2.25
2022-10-15T22:46:28.103Z,1.98
2022-10-15T22:48:54.738Z,1.17
2022-10-15T22:51:22.022Z,1.60
2022-10-15T22:53:48.569Z,2.38
2022-10-15T22:56:17.822Z,1.85
2022-10-15T22:58:45.031Z,1.33
2022-10-15T23:01:15.484Z,2.30
2022-10-15T23:03:44.571Z,1.27
2022-10-15T23:06:11.974Z,1.77
2022-10-15T23:08:39.198Z,1.83
2022-10-15T23:11:09.283Z,2.72
2022-10-15T23:13:37.192Z,1.73
2022-10-15T23:16:08.590Z,2.50
2022-10-15T23:18:35.338Z,1.75
2022-10-15T23:21:07.294Z,2.47
2022-10-15T23:23:34.117Z,2.20
2022-10-15T23:26:00.729Z,2.03
2022-10-15T23:28:27.535Z,1.80
2022-10-15T23:30:55.956Z,2.00
2022-10-15T23:33:23.988Z,2.28
2022-10-15T23:36:03.657Z,1.73
2022-10-15T23:38:31.037Z,2.08
2022-10-15T23:41:02.757Z,1.60
2022-10-15T23:43:30.120Z,2.28
2022-10-15T23:45:57.547Z,2.13
2022-10-15T23:48:24.637Z,2.25
2022-10-15T23:50:51.586Z,2.28
2022-10-15T23:53:18.398Z,1.95
2022-10-15T23:55:45.473Z,2.67
2022-10-15T23:58:12.438Z,3.25
